Strona główna
METAR-TAF:

METAR-TAF

Lotnisko :

Fritzlar, Niemcy

Szerokość geograficzna: 51-07N, Długość geograficzna: 009-17E, wysokość: 172 m

Aktualna obserwacja pogody

Raport powstał 53 minut temu, godzina 10:20 UTC
Wiatr 5 kt od południowy wschód
Temperatura 22°C
Wilgotność 53%
Ciśnienie 1012 hPa
Widzialność 10 km lub więcej
Mało chmury na wysokości 3400 ft
Przerywane chmury na wysokości 17000 ft

METAR: ETHF 181020Z 14005KT 9999 FEW034 BKN170 22/12 Q1012 BLU BLU

czas: 13:13 (11:13 UTC)

Prognoza

Raport powstał 1 godzina i 11 minut temu, godzina 10:02 UTC
Prognoza ważna od 18 godzina 11 UTC do 18 godzina 20 UTC
Wiatr 6 kt od południowy zachód
Widzialność 10 km lub więcej
Mało chmury na wysokości 3000 ft
Przerywane chmury na wysokości 15000 ft

TAF: ETHF 181002Z 1811/1820 23006KT 9999 NSW FEW030 BKN150

Obserwacja i prognoza pogody dla ponad 4000 lotnisk (raport METAR i TAF).

Dostępne stacje oznaczono żółtymi i czerwonymi punktami na mapie.

Najedź kursorem aby zobaczyć nazwę stacji.

Kliknij aby zobaczyć obserwacje i prognozy pogody.

Aby zmienić mapę: kliknij na zielony przycisk z czarnym krzyżykiem, aby powiększyć; na zielony przycisk z myślnikiem, aby pomniejszyć; na zielone strzałki, aby przejść do map sąsiednich.


METAR-TAF: